createdAt,value
2023-04-26T00:01:58.685Z,56.52
2023-04-26T00:04:29.219Z,57.82
2023-04-26T00:06:57.472Z,57.56
2023-04-26T00:09:27.116Z,57.40
2023-04-26T00:11:54.373Z,56.14
2023-04-26T00:14:21.954Z,57.01
2023-04-26T00:16:49.863Z,57.71
2023-04-26T00:19:18.323Z,57.39
2023-04-26T00:21:46.428Z,57.77
2023-04-26T00:24:14.354Z,56.84
2023-04-26T00:26:41.809Z,57.57
2023-04-26T00:29:09.672Z,56.69
2023-04-26T00:31:43.286Z,56.71
2023-04-26T00:34:10.955Z,57.06
2023-04-26T00:36:38.715Z,56.78
2023-04-26T00:39:07.091Z,57.93
2023-04-26T00:41:34.600Z,56.39
2023-04-26T00:44:02.511Z,55.62
2023-04-26T00:46:31.094Z,55.49
2023-04-26T00:48:58.834Z,57.54
2023-04-26T00:51:27.263Z,56.15
2023-04-26T00:53:54.878Z,57.34
2023-04-26T00:56:22.447Z,59.20
2023-04-26T00:58:51.089Z,57.52
2023-04-26T01:01:18.588Z,56.76
2023-04-26T01:03:47.159Z,55.67
2023-04-26T01:06:15.619Z,56.74
2023-04-26T01:08:43.863Z,56.90
2023-04-26T01:11:11.747Z,57.30
2023-04-26T01:13:39.534Z,56.80
2023-04-26T01:16:07.823Z,57.47
2023-04-26T01:18:36.117Z,57.84
2023-04-26T01:21:05.130Z,58.24
2023-04-26T01:23:32.713Z,58.66
2023-04-26T01:26:02.138Z,58.07
2023-04-26T01:28:29.857Z,57.11
2023-04-26T01:30:58.093Z,57.25
2023-04-26T01:33:25.586Z,57.25
2023-04-26T01:35:53.950Z,57.77
2023-04-26T01:38:22.297Z,57.25
2023-04-26T01:40:51.714Z,57.57
2023-04-26T01:43:24.720Z,56.72
2023-04-26T01:45:52.209Z,57.18
2023-04-26T01:48:30.287Z,56.90
2023-04-26T01:51:01.150Z,56.99
2023-04-26T01:53:29.879Z,57.92
2023-04-26T01:56:00.530Z,58.05
2023-04-26T01:58:29.238Z,58.68
2023-04-26T02:00:57.340Z,57.92
2023-04-26T02:03:25.263Z,57.31
2023-04-26T02:05:54.422Z,57.09
2023-04-26T02:08:21.763Z,57.42
2023-04-26T02:10:49.316Z,56.66
2023-04-26T02:13:16.727Z,56.96
2023-04-26T02:15:49.297Z,57.76
2023-04-26T02:18:18.012Z,56.87
2023-04-26T02:20:46.370Z,57.64
2023-04-26T02:23:14.959Z,58.16
2023-04-26T02:25:45.736Z,56.95
2023-04-26T02:28:13.861Z,56.81
2023-04-26T02:30:41.198Z,57.50
2023-04-26T02:33:09.268Z,56.46
2023-04-26T02:35:37.507Z,56.91
2023-04-26T02:38:05.706Z,59.16
2023-04-26T02:40:33.436Z,58.51
2023-04-26T02:43:04.089Z,57.21
2023-04-26T02:45:31.896Z,57.55
2023-04-26T02:48:01.136Z,56.80
2023-04-26T02:50:29.288Z,57.91
2023-04-26T02:52:56.879Z,57.19
2023-04-26T02:55:24.279Z,58.10
2023-04-26T02:57:52.586Z,57.16
2023-04-26T03:00:20.044Z,57.80
2023-04-26T03:02:48.465Z,58.07
2023-04-26T03:05:21.133Z,59.37
2023-04-26T03:07:49.286Z,59.10
2023-04-26T03:10:17.115Z,58.52
2023-04-26T03:12:46.354Z,58.92
2023-04-26T03:15:15.894Z,58.93
2023-04-26T03:17:44.056Z,59.63
2023-04-26T03:20:14.048Z,59.72
2023-04-26T03:22:43.264Z,59.81
2023-04-26T03:25:11.552Z,59.58
2023-04-26T03:27:39.537Z,58.08
2023-04-26T03:30:07.980Z,57.52
2023-04-26T03:32:35.993Z,57.33
2023-04-26T03:35:29.980Z,57.38
2023-04-26T03:37:58.766Z,58.08
2023-04-26T03:40:33.959Z,57.59
2023-04-26T03:43:23.060Z,57.94
2023-04-26T03:45:52.412Z,57.16
2023-04-26T03:48:25.089Z,57.92
2023-04-26T03:50:57.065Z,56.83
2023-04-26T03:53:31.633Z,56.59
2023-04-26T03:56:04.684Z,56.52
2023-04-26T03:59:04.462Z,57.15
2023-04-26T04:02:01.563Z,56.84
2023-04-26T04:04:31.639Z,56.46
2023-04-26T04:07:00.040Z,56.00
2023-04-26T04:09:28.150Z,55.45
2023-04-26T04:11:56.012Z,55.49
2023-04-26T04:14:24.689Z,54.45
2023-04-26T04:16:53.131Z,55.49
2023-04-26T04:19:21.086Z,56.23
2023-04-26T04:21:49.739Z,56.52
2023-04-26T04:24:17.871Z,55.66
2023-04-26T04:26:47.274Z,56.26
2023-04-26T04:29:16.098Z,57.47
2023-04-26T04:31:44.634Z,57.59
2023-04-26T04:34:26.345Z,56.84
2023-04-26T04:36:54.997Z,55.34
2023-04-26T04:39:26.330Z,54.73
2023-04-26T04:41:55.382Z,55.66
2023-04-26T04:44:28.596Z,56.31
2023-04-26T04:46:58.498Z,55.93
2023-04-26T04:49:28.161Z,56.49
2023-04-26T04:51:57.526Z,55.20
2023-04-26T04:54:29.067Z,55.48
2023-04-26T04:56:58.914Z,55.87
2023-04-26T04:59:28.102Z,54.46
2023-04-26T05:01:58.482Z,55.15
2023-04-26T05:04:28.533Z,55.46
2023-04-26T05:06:57.959Z,57.00
2023-04-26T05:09:26.914Z,55.91
2023-04-26T05:11:56.136Z,54.82
2023-04-26T05:14:24.556Z,54.92
2023-04-26T05:16:54.200Z,53.81
2023-04-26T05:19:23.008Z,54.67
2023-04-26T05:21:57.061Z,53.66
2023-04-26T05:24:34.516Z,53.01
2023-04-26T05:27:09.163Z,54.78
2023-04-26T05:29:41.639Z,54.76
2023-04-26T05:32:10.724Z,54.44
2023-04-26T05:34:42.758Z,52.69
2023-04-26T05:37:11.321Z,53.12
2023-04-26T05:39:41.090Z,53.65
2023-04-26T05:42:09.448Z,51.53
2023-04-26T05:44:38.581Z,50.90
2023-04-26T05:47:08.409Z,49.75
2023-04-26T05:49:39.083Z,50.09
2023-04-26T05:52:09.355Z,49.51
2023-04-26T05:54:41.235Z,49.97
2023-04-26T05:57:10.272Z,49.83
2023-04-26T05:59:41.218Z,48.87
2023-04-26T06:02:11.087Z,48.58
2023-04-26T06:04:40.334Z,49.62
2023-04-26T06:07:10.526Z,47.84
2023-04-26T06:09:37.962Z,48.63
2023-04-26T06:12:09.513Z,46.92
2023-04-26T06:14:37.714Z,48.40
2023-04-26T06:17:06.313Z,46.00
2023-04-26T06:19:34.213Z,44.70
2023-04-26T06:22:01.736Z,45.75
2023-04-26T06:24:31.670Z,46.58
2023-04-26T06:27:04.520Z,45.71
2023-04-26T06:29:33.495Z,43.22
2023-04-26T06:32:02.315Z,44.33
2023-04-26T06:34:31.836Z,45.25
2023-04-26T06:37:03.139Z,43.88
2023-04-26T06:39:31.651Z,42.49
2023-04-26T06:42:00.939Z,41.58
2023-04-26T06:44:29.353Z,42.11
2023-04-26T06:47:00.609Z,41.54
2023-04-26T06:49:35.094Z,40.49
2023-04-26T06:52:02.668Z,39.86
2023-04-26T06:54:33.411Z,40.13
2023-04-26T06:57:03.127Z,40.32
2023-04-26T06:59:30.897Z,40.70
2023-04-26T07:02:00.296Z,40.84
2023-04-26T07:04:32.580Z,40.60
2023-04-26T07:07:01.276Z,39.75
2023-04-26T07:09:30.422Z,41.33
2023-04-26T07:12:06.176Z,40.66
2023-04-26T07:14:39.539Z,41.37
2023-04-26T07:17:09.084Z,41.50
2023-04-26T07:19:37.820Z,40.08
2023-04-26T07:22:05.666Z,39.03
2023-04-26T07:24:33.289Z,39.93
2023-04-26T07:29:36.537Z,40.13
2023-04-26T07:32:07.094Z,39.82
2023-04-26T07:34:38.216Z,37.99
2023-04-26T07:37:08.427Z,37.86
2023-04-26T07:39:41.098Z,39.58
2023-04-26T07:42:10.223Z,38.25
2023-04-26T07:44:38.368Z,37.01
2023-04-26T07:47:06.154Z,38.51
2023-04-26T07:49:35.156Z,39.32
2023-04-26T07:52:03.339Z,36.97
2023-04-26T07:54:37.316Z,35.91
2023-04-26T07:57:05.661Z,35.71
2023-04-26T07:59:34.115Z,35.65
2023-04-26T08:02:03.385Z,36.19
2023-04-26T08:04:34.080Z,35.76
2023-04-26T08:07:02.389Z,34.72
2023-04-26T08:09:32.207Z,33.57
2023-04-26T08:12:00.482Z,33.06
2023-04-26T08:14:28.796Z,33.85
2023-04-26T08:16:58.423Z,32.46
2023-04-26T08:19:35.212Z,32.19
2023-04-26T08:22:04.275Z,33.54
2023-04-26T08:24:32.405Z,35.15
2023-04-26T08:26:59.993Z,33.57
2023-04-26T08:29:29.615Z,33.28
2023-04-26T08:31:58.034Z,32.53
2023-04-26T08:34:26.953Z,32.90
2023-04-26T08:36:55.174Z,32.74
2023-04-26T08:39:24.383Z,31.65
2023-04-26T08:41:55.024Z,32.17
2023-04-26T08:44:28.068Z,30.84
2023-04-26T08:46:59.034Z,32.48
2023-04-26T08:49:30.261Z,31.63
2023-04-26T08:52:04.649Z,32.50
2023-04-26T08:54:32.966Z,31.61
2023-04-26T08:57:05.091Z,33.09
2023-04-26T08:59:41.154Z,33.08
2023-04-26T09:02:10.138Z,34.61
2023-04-26T09:04:38.847Z,33.57
2023-04-26T09:07:08.528Z,32.50
2023-04-26T09:09:42.058Z,33.57
2023-04-26T09:12:16.251Z,34.09
2023-04-26T09:14:43.861Z,31.57
2023-04-26T09:17:31.827Z,31.48
2023-04-26T09:20:01.476Z,29.71
2023-04-26T09:22:40.338Z,30.51
2023-04-26T09:25:09.598Z,31.48
2023-04-26T09:27:43.088Z,31.05
2023-04-26T09:30:22.137Z,30.86
2023-04-26T09:32:57.615Z,31.98
2023-04-26T09:35:33.761Z,32.39
2023-04-26T09:38:10.972Z,32.25
2023-04-26T09:40:46.920Z,32.29
2023-04-26T09:43:19.203Z,32.19
2023-04-26T09:45:53.293Z,32.19
2023-04-26T09:48:26.998Z,30.36
2023-04-26T09:50:55.312Z,30.18
2023-04-26T09:53:37.558Z,30.56
2023-04-26T09:56:14.849Z,31.05
2023-04-26T09:59:01.478Z,29.79
2023-04-26T10:01:30.664Z,29.94
2023-04-26T10:04:06.227Z,29.30
2023-04-26T10:06:36.126Z,29.83
2023-04-26T10:11:40.052Z,30.39
2023-04-26T10:14:09.203Z,29.86
2023-04-26T10:16:38.278Z,31.09
2023-04-26T10:19:09.221Z,31.56
2023-04-26T10:21:38.039Z,30.60
2023-04-26T10:24:13.323Z,30.53
2023-04-26T10:26:49.619Z,29.72
2023-04-26T10:29:18.545Z,29.68
2023-04-26T10:32:03.387Z,30.64
2023-04-26T10:34:37.258Z,28.56
2023-04-26T10:37:15.395Z,30.58
2023-04-26T10:39:46.042Z,28.61
2023-04-26T10:42:27.691Z,28.75
2023-04-26T10:44:56.560Z,28.33
2023-04-26T10:47:32.197Z,28.56
2023-04-26T10:50:10.373Z,29.86
2023-04-26T10:52:39.410Z,29.40
2023-04-26T10:55:09.802Z,29.26
2023-04-26T10:57:50.852Z,29.17
2023-04-26T11:00:25.506Z,28.75
2023-04-26T11:02:58.908Z,28.97
2023-04-26T11:05:49.118Z,28.23
2023-04-26T11:08:19.297Z,28.64
2023-04-26T11:10:53.013Z,28.32
2023-04-26T11:13:21.479Z,28.01
2023-04-26T11:15:55.200Z,27.69
2023-04-26T11:18:26.341Z,28.82
2023-04-26T11:20:55.477Z,28.96
2023-04-26T11:23:24.270Z,29.60
2023-04-26T11:25:52.448Z,29.24
2023-04-26T11:28:28.356Z,28.12
2023-04-26T11:31:01.088Z,28.97
2023-04-26T11:33:29.564Z,28.53
2023-04-26T11:35:59.164Z,29.56
2023-04-26T11:38:28.820Z,29.35
2023-04-26T11:41:03.248Z,29.41
2023-04-26T11:43:33.166Z,30.36
2023-04-26T11:46:04.099Z,30.21
2023-04-26T11:48:34.551Z,29.71
2023-04-26T11:51:04.023Z,28.86
2023-04-26T11:53:39.621Z,31.11
2023-04-26T11:56:18.201Z,29.94
2023-04-26T11:58:54.305Z,28.16
2023-04-26T12:01:30.121Z,28.73
2023-04-26T12:04:00.499Z,29.23
2023-04-26T12:06:45.540Z,29.34
2023-04-26T12:09:17.237Z,28.45
2023-04-26T12:11:50.475Z,29.52
2023-04-26T12:14:23.492Z,28.10
2023-04-26T12:16:53.001Z,27.60
2023-04-26T12:19:25.499Z,26.40
2023-04-26T12:21:57.074Z,27.14
2023-04-26T12:24:27.476Z,27.41
2023-04-26T12:26:56.519Z,28.21
2023-04-26T12:29:32.257Z,27.88
2023-04-26T12:32:07.583Z,27.39
2023-04-26T12:34:37.054Z,27.91
2023-04-26T12:37:05.647Z,27.36
2023-04-26T12:39:34.574Z,26.98
2023-04-26T12:42:05.154Z,27.73
2023-04-26T12:44:36.227Z,28.38
2023-04-26T12:47:05.424Z,27.09
2023-04-26T12:49:32.972Z,26.76
2023-04-26T12:52:02.136Z,27.58
2023-04-26T12:54:31.215Z,27.81
2023-04-26T12:56:58.811Z,27.60
2023-04-26T12:59:32.933Z,29.55
2023-04-26T13:02:04.134Z,28.37
2023-04-26T13:04:34.207Z,27.47
2023-04-26T13:07:08.170Z,29.19
2023-04-26T13:09:45.113Z,27.22
2023-04-26T13:12:14.999Z,29.88
2023-04-26T13:14:50.153Z,26.51
2023-04-26T13:17:22.323Z,26.85
2023-04-26T13:19:50.650Z,27.17
2023-04-26T13:22:22.137Z,27.20
2023-04-26T13:24:56.148Z,27.66
2023-04-26T13:27:25.701Z,27.19
2023-04-26T13:29:54.092Z,27.01
2023-04-26T13:32:22.571Z,28.41
2023-04-26T13:34:54.187Z,27.79
2023-04-26T13:37:26.101Z,27.82
2023-04-26T13:40:00.198Z,28.64
2023-04-26T13:42:29.938Z,28.24
2023-04-26T13:45:01.462Z,27.56
2023-04-26T13:47:32.351Z,27.32
2023-04-26T13:50:04.464Z,27.45
2023-04-26T13:52:36.132Z,27.70
2023-04-26T13:55:10.576Z,27.49
2023-04-26T13:57:40.120Z,26.93
2023-04-26T14:00:09.634Z,27.00
2023-04-26T14:02:39.118Z,27.76
2023-04-26T14:05:09.434Z,25.67
2023-04-26T14:07:38.288Z,26.22
2023-04-26T14:10:11.136Z,28.47
2023-04-26T14:12:45.706Z,29.06
2023-04-26T14:15:15.116Z,29.41
2023-04-26T14:17:43.867Z,28.76
2023-04-26T14:20:13.344Z,28.68
2023-04-26T14:22:47.211Z,28.45
2023-04-26T14:25:26.764Z,27.59
2023-04-26T14:28:01.525Z,26.59
2023-04-26T14:30:32.556Z,26.63
2023-04-26T14:33:13.383Z,27.57
2023-04-26T14:35:42.125Z,27.69
2023-04-26T14:38:14.684Z,28.22
2023-04-26T14:40:47.058Z,29.79
2023-04-26T14:43:16.753Z,29.24
2023-04-26T14:45:45.334Z,29.44
2023-04-26T14:48:18.380Z,30.12
2023-04-26T14:51:15.348Z,30.80
2023-04-26T14:53:57.047Z,30.67
2023-04-26T14:56:43.314Z,29.78
2023-04-26T14:59:32.101Z,28.81
2023-04-26T15:02:01.396Z,29.00
2023-04-26T15:04:34.349Z,28.79
2023-04-26T15:07:04.426Z,27.97
2023-04-26T15:09:41.357Z,26.74
2023-04-26T15:12:12.768Z,25.02
2023-04-26T15:14:48.164Z,25.45
2023-04-26T15:17:31.255Z,26.06
2023-04-26T15:20:00.167Z,27.13
2023-04-26T15:22:31.349Z,25.85
2023-04-26T15:25:00.426Z,25.60
2023-04-26T15:27:29.174Z,26.05
2023-04-26T15:29:58.782Z,26.82
2023-04-26T15:32:28.099Z,27.55
2023-04-26T15:34:56.287Z,26.34
2023-04-26T15:37:26.451Z,26.40
2023-04-26T15:40:07.254Z,26.91
2023-04-26T15:42:49.285Z,28.60
2023-04-26T15:45:20.795Z,27.81
2023-04-26T15:47:51.286Z,29.08
2023-04-26T15:50:20.790Z,29.07
2023-04-26T15:52:53.272Z,29.41
2023-04-26T15:57:58.295Z,28.57
2023-04-26T16:00:35.110Z,30.04
2023-04-26T16:03:07.088Z,29.07
2023-04-26T16:05:45.157Z,29.73
2023-04-26T16:08:39.380Z,29.35
2023-04-26T16:11:16.361Z,29.00
2023-04-26T16:13:54.117Z,27.41
2023-04-26T16:16:37.186Z,28.50
2023-04-26T16:19:11.173Z,28.81
2023-04-26T16:21:43.399Z,28.92
2023-04-26T16:24:14.364Z,28.49
2023-04-26T16:26:42.877Z,28.27
2023-04-26T16:29:11.209Z,29.54
2023-04-26T16:31:40.087Z,28.21
2023-04-26T16:34:10.208Z,29.46
2023-04-26T16:36:47.462Z,28.86
2023-04-26T16:39:25.204Z,28.44
2023-04-26T16:41:54.096Z,29.66
2023-04-26T16:44:24.758Z,29.81
2023-04-26T16:47:06.875Z,29.32
2023-04-26T16:49:35.604Z,29.20
2023-04-26T16:52:05.083Z,29.59
2023-04-26T16:54:34.547Z,29.20
2023-04-26T16:57:04.536Z,29.40
2023-04-26T16:59:39.593Z,29.13
2023-04-26T17:02:07.891Z,29.03
2023-04-26T17:04:47.485Z,28.62
2023-04-26T17:07:18.110Z,28.94
2023-04-26T17:09:46.541Z,28.38
2023-04-26T17:12:16.196Z,28.78
2023-04-26T17:14:49.048Z,28.75
2023-04-26T17:17:17.637Z,29.03
2023-04-26T17:19:56.114Z,30.02
2023-04-26T17:22:26.181Z,28.76
2023-04-26T17:27:35.189Z,29.69
2023-04-26T17:30:11.077Z,28.98
2023-04-26T17:32:53.125Z,29.35
2023-04-26T17:35:28.105Z,29.09
2023-04-26T17:38:00.091Z,29.56
2023-04-26T17:40:35.174Z,29.82
2023-04-26T17:43:14.108Z,30.89
2023-04-26T17:48:29.225Z,29.70
2023-04-26T17:51:07.296Z,29.23
2023-04-26T17:53:47.347Z,29.28
2023-04-26T17:56:18.945Z,29.18
2023-04-26T17:59:08.249Z,28.77
2023-04-26T18:01:38.044Z,28.34
2023-04-26T18:04:12.547Z,28.58
2023-04-26T18:06:47.087Z,29.01
2023-04-26T18:09:18.123Z,28.67
2023-04-26T18:11:48.090Z,28.41
2023-04-26T18:14:22.247Z,28.81
2023-04-26T18:16:53.568Z,29.41
2023-04-26T18:19:24.070Z,28.65
2023-04-26T18:21:58.080Z,28.87
2023-04-26T18:24:30.087Z,29.11
2023-04-26T18:27:08.171Z,29.13
2023-04-26T18:29:43.292Z,30.01
2023-04-26T18:32:12.763Z,28.86
2023-04-26T18:37:32.095Z,29.90
2023-04-26T18:40:01.136Z,30.37
2023-04-26T18:42:39.184Z,31.99
2023-04-26T18:45:13.096Z,32.21
2023-04-26T18:47:43.313Z,29.65
2023-04-26T18:50:12.360Z,29.36
2023-04-26T18:52:53.124Z,31.33
2023-04-26T18:55:25.950Z,32.23
2023-04-26T18:57:56.289Z,32.36
2023-04-26T19:00:34.133Z,32.26
2023-04-26T19:03:04.497Z,33.08
2023-04-26T19:05:34.327Z,33.86
2023-04-26T19:08:07.078Z,34.45
2023-04-26T19:10:35.712Z,33.42
2023-04-26T19:13:07.733Z,33.33
2023-04-26T19:15:38.216Z,33.11
2023-04-26T19:18:12.307Z,33.18
2023-04-26T19:20:41.534Z,33.66
2023-04-26T19:23:12.671Z,34.74
2023-04-26T19:25:41.081Z,35.22
2023-04-26T19:28:14.044Z,35.75
2023-04-26T19:30:45.204Z,37.04
2023-04-26T19:33:17.197Z,34.65
2023-04-26T19:35:45.223Z,36.34
2023-04-26T19:38:13.101Z,36.23
2023-04-26T19:40:46.367Z,35.53
2023-04-26T19:43:21.104Z,34.18
2023-04-26T19:45:56.262Z,35.00
2023-04-26T19:48:24.335Z,35.38
2023-04-26T19:50:52.806Z,35.70
2023-04-26T19:53:29.059Z,35.63
2023-04-26T19:55:57.387Z,35.96
2023-04-26T19:58:26.065Z,36.07
2023-04-26T20:00:59.093Z,36.81
2023-04-26T20:03:28.364Z,36.73
2023-04-26T20:05:58.108Z,37.25
2023-04-26T20:08:29.192Z,37.31
2023-04-26T20:11:01.936Z,37.22
2023-04-26T20:13:32.120Z,37.52
2023-04-26T20:16:02.117Z,38.71
2023-04-26T20:18:32.021Z,38.84
2023-04-26T20:21:07.272Z,38.63
2023-04-26T20:23:37.202Z,37.71
2023-04-26T20:26:05.044Z,38.82
2023-04-26T20:31:13.386Z,39.46
2023-04-26T20:33:40.970Z,39.32
2023-04-26T20:36:09.151Z,40.13
2023-04-26T20:38:44.061Z,40.70
2023-04-26T20:41:18.080Z,40.23
2023-04-26T20:43:46.748Z,40.99
2023-04-26T20:46:16.351Z,41.83
2023-04-26T20:48:44.289Z,41.78
2023-04-26T20:51:13.957Z,42.36
2023-04-26T20:53:43.766Z,41.92
2023-04-26T20:56:14.119Z,42.75
2023-04-26T20:58:42.540Z,43.17
2023-04-26T21:01:15.406Z,42.69
2023-04-26T21:03:46.351Z,43.68
2023-04-26T21:06:15.353Z,43.93
2023-04-26T21:08:43.446Z,44.38
2023-04-26T21:11:10.833Z,44.11
2023-04-26T21:13:39.489Z,44.01
2023-04-26T21:16:06.863Z,44.07
2023-04-26T21:18:41.948Z,44.03
2023-04-26T21:21:15.915Z,44.66
2023-04-26T21:23:45.563Z,44.02
2023-04-26T21:26:21.852Z,43.38
2023-04-26T21:28:50.208Z,42.92
2023-04-26T21:31:17.899Z,43.43
2023-04-26T21:33:46.808Z,43.88
2023-04-26T21:36:16.556Z,44.50
2023-04-26T21:38:44.460Z,44.02
2023-04-26T21:41:13.484Z,43.66
2023-04-26T21:43:41.761Z,43.37
2023-04-26T21:46:09.566Z,43.87
2023-04-26T21:48:38.795Z,43.77
2023-04-26T21:51:08.517Z,44.07
2023-04-26T21:53:36.013Z,44.54
2023-04-26T21:56:06.260Z,44.67
2023-04-26T21:58:46.329Z,44.83
2023-04-26T22:01:15.262Z,45.47
2023-04-26T22:03:44.783Z,45.90
2023-04-26T22:06:12.282Z,45.22
2023-04-26T22:08:43.244Z,45.95
2023-04-26T22:11:12.522Z,45.74
2023-04-26T22:13:41.732Z,46.65
2023-04-26T22:16:09.836Z,46.86
2023-04-26T22:18:38.748Z,47.63
2023-04-26T22:21:06.403Z,47.42
2023-04-26T22:23:34.484Z,47.13
2023-04-26T22:26:03.277Z,48.12
2023-04-26T22:28:31.194Z,47.69
2023-04-26T22:30:58.812Z,48.38
2023-04-26T22:33:27.158Z,47.99
2023-04-26T22:35:58.089Z,48.04
2023-04-26T22:38:25.506Z,47.43
2023-04-26T22:40:53.317Z,47.47
2023-04-26T22:43:21.320Z,48.28
2023-04-26T22:45:48.825Z,47.41
2023-04-26T22:48:17.195Z,47.20
2023-04-26T22:50:45.024Z,47.30
2023-04-26T22:53:12.237Z,47.43
2023-04-26T22:55:40.281Z,47.78
2023-04-26T22:58:08.685Z,48.65
2023-04-26T23:00:36.300Z,48.15
2023-04-26T23:03:04.240Z,48.36
2023-04-26T23:05:31.636Z,48.36
2023-04-26T23:07:59.458Z,48.52
2023-04-26T23:10:28.392Z,48.72
2023-04-26T23:12:55.621Z,47.83
2023-04-26T23:15:23.876Z,48.43
2023-04-26T23:17:52.194Z,48.84
2023-04-26T23:20:19.540Z,48.67
2023-04-26T23:22:47.236Z,48.78
2023-04-26T23:25:16.536Z,48.96
2023-04-26T23:27:43.733Z,48.77
2023-04-26T23:30:13.747Z,48.52
2023-04-26T23:32:41.675Z,48.04
2023-04-26T23:35:09.770Z,48.01
2023-04-26T23:37:37.294Z,47.31
2023-04-26T23:40:10.059Z,47.56
2023-04-26T23:42:37.829Z,47.93
2023-04-26T23:45:05.740Z,47.92
2023-04-26T23:47:33.134Z,47.99
2023-04-26T23:50:00.969Z,48.14
2023-04-26T23:52:29.007Z,47.49
2023-04-26T23:54:56.423Z,47.62
2023-04-26T23:57:23.975Z,47.66
2023-04-26T23:59:52.787Z,47.86
